sensor_id;sensor_type;location;lat;lon;timestamp;pressure;altitude;pressure_sealevel;temperature;humidity
11329;BME280;5719;42.714;23.732;2023-05-10T00:01:30;94712.56;;;10.48;100.00
11329;BME280;5719;42.714;23.732;2023-05-10T00:03:57;94708.41;;;10.58;100.00
11329;BME280;5719;42.714;23.732;2023-05-10T00:06:26;94711.31;;;10.66;100.00
11329;BME280;5719;42.714;23.732;2023-05-10T00:08:53;94712.13;;;10.79;100.00
11329;BME280;5719;42.714;23.732;2023-05-10T00:11:20;94704.88;;;10.85;100.00
11329;BME280;5719;42.714;23.732;2023-05-10T00:13:46;94708.69;;;10.92;100.00
11329;BME280;5719;42.714;23.732;2023-05-10T00:16:13;94703.28;;;10.95;100.00
11329;BME280;5719;42.714;23.732;2023-05-10T00:18:40;94709.00;;;11.00;100.00
11329;BME280;5719;42.714;23.732;2023-05-10T00:21:07;94708.56;;;11.06;100.00
11329;BME280;5719;42.714;23.732;2023-05-10T00:23:35;94710.69;;;11.12;100.00
11329;BME280;5719;42.714;23.732;2023-05-10T00:26:02;94713.91;;;11.15;100.00
11329;BME280;5719;42.714;23.732;2023-05-10T00:28:29;94705.13;;;11.18;100.00
11329;BME280;5719;42.714;23.732;2023-05-10T00:30:56;94702.09;;;11.24;100.00
11329;BME280;5719;42.714;23.732;2023-05-10T00:33:23;94708.78;;;11.26;100.00
11329;BME280;5719;42.714;23.732;2023-05-10T00:35:50;94700.94;;;11.28;100.00
11329;BME280;5719;42.714;23.732;2023-05-10T00:38:17;94693.78;;;11.31;100.00
11329;BME280;5719;42.714;23.732;2023-05-10T00:40:45;94690.81;;;11.12;100.00
11329;BME280;5719;42.714;23.732;2023-05-10T00:43:12;94704.16;;;11.19;100.00
11329;BME280;5719;42.714;23.732;2023-05-10T00:45:39;94704.56;;;11.25;100.00
11329;BME280;5719;42.714;23.732;2023-05-10T00:48:06;94696.91;;;11.24;100.00
11329;BME280;5719;42.714;23.732;2023-05-10T00:50:33;94702.72;;;11.15;100.00
11329;BME280;5719;42.714;23.732;2023-05-10T00:53:02;94694.91;;;11.04;100.00
11329;BME280;5719;42.714;23.732;2023-05-10T00:55:29;94700.19;;;10.90;100.00
11329;BME280;5719;42.714;23.732;2023-05-10T00:57:58;94699.59;;;10.86;100.00
11329;BME280;5719;42.714;23.732;2023-05-10T01:00:24;94695.16;;;10.75;100.00
11329;BME280;5719;42.714;23.732;2023-05-10T01:02:53;94694.97;;;10.53;100.00
11329;BME280;5719;42.714;23.732;2023-05-10T01:05:20;94700.56;;;10.47;100.00
11329;BME280;5719;42.714;23.732;2023-05-10T01:07:47;94693.84;;;10.45;100.00
11329;BME280;5719;42.714;23.732;2023-05-10T01:10:14;94697.34;;;10.31;100.00
11329;BME280;5719;42.714;23.732;2023-05-10T01:12:43;94688.28;;;10.38;100.00
11329;BME280;5719;42.714;23.732;2023-05-10T01:15:12;94692.72;;;10.23;100.00
11329;BME280;5719;42.714;23.732;2023-05-10T01:17:42;94694.34;;;10.12;100.00
11329;BME280;5719;42.714;23.732;2023-05-10T01:20:11;94687.59;;;9.97;100.00
11329;BME280;5719;42.714;23.732;2023-05-10T01:22:51;94687.63;;;9.70;100.00
11329;BME280;5719;42.714;23.732;2023-05-10T01:25:56;94689.38;;;9.69;100.00
11329;BME280;5719;42.714;23.732;2023-05-10T01:34:35;94680.50;;;9.61;100.00
11329;BME280;5719;42.714;23.732;2023-05-10T01:37:09;94686.78;;;9.57;100.00
11329;BME280;5719;42.714;23.732;2023-05-10T01:39:43;94680.41;;;9.62;100.00
11329;BME280;5719;42.714;23.732;2023-05-10T01:42:14;94679.19;;;9.68;100.00
11329;BME280;5719;42.714;23.732;2023-05-10T01:44:46;94674.22;;;9.65;100.00
11329;BME280;5719;42.714;23.732;2023-05-10T01:47:19;94675.69;;;9.69;100.00
11329;BME280;5719;42.714;23.732;2023-05-10T01:49:50;94679.91;;;9.70;100.00
11329;BME280;5719;42.714;23.732;2023-05-10T01:52:20;94675.16;;;9.64;100.00
11329;BME280;5719;42.714;23.732;2023-05-10T01:54:52;94685.81;;;9.45;100.00
11329;BME280;5719;42.714;23.732;2023-05-10T01:57:22;94690.81;;;9.21;100.00
11329;BME280;5719;42.714;23.732;2023-05-10T01:59:51;94690.22;;;8.90;100.00
11329;BME280;5719;42.714;23.732;2023-05-10T02:02:20;94691.53;;;8.68;100.00
11329;BME280;5719;42.714;23.732;2023-05-10T02:04:49;94701.13;;;8.52;100.00
11329;BME280;5719;42.714;23.732;2023-05-10T02:07:17;94703.41;;;8.28;100.00
11329;BME280;5719;42.714;23.732;2023-05-10T02:09:45;94708.78;;;8.10;100.00
11329;BME280;5719;42.714;23.732;2023-05-10T02:12:13;94705.31;;;8.11;100.00
11329;BME280;5719;42.714;23.732;2023-05-10T02:14:42;94709.38;;;8.15;100.00
11329;BME280;5719;42.714;23.732;2023-05-10T02:17:10;94710.19;;;8.15;100.00
11329;BME280;5719;42.714;23.732;2023-05-10T02:19:40;94716.06;;;8.17;100.00
11329;BME280;5719;42.714;23.732;2023-05-10T02:22:12;94708.34;;;8.17;100.00
11329;BME280;5719;42.714;23.732;2023-05-10T02:24:40;94705.81;;;8.31;100.00
11329;BME280;5719;42.714;23.732;2023-05-10T02:27:08;94706.00;;;8.43;100.00
11329;BME280;5719;42.714;23.732;2023-05-10T02:29:36;94705.00;;;8.45;100.00
11329;BME280;5719;42.714;23.732;2023-05-10T02:32:04;94704.44;;;8.40;100.00
11329;BME280;5719;42.714;23.732;2023-05-10T02:34:33;94698.38;;;8.41;100.00
11329;BME280;5719;42.714;23.732;2023-05-10T02:37:02;94707.97;;;8.23;100.00
11329;BME280;5719;42.714;23.732;2023-05-10T02:39:31;94707.13;;;8.09;100.00
11329;BME280;5719;42.714;23.732;2023-05-10T02:41:59;94702.47;;;8.15;100.00
11329;BME280;5719;42.714;23.732;2023-05-10T02:44:28;94715.41;;;8.14;100.00
11329;BME280;5719;42.714;23.732;2023-05-10T02:46:57;94711.38;;;8.10;100.00
11329;BME280;5719;42.714;23.732;2023-05-10T02:49:24;94716.31;;;8.28;100.00
11329;BME280;5719;42.714;23.732;2023-05-10T02:51:52;94714.13;;;8.21;100.00
11329;BME280;5719;42.714;23.732;2023-05-10T02:54:31;94713.78;;;8.27;100.00
11329;BME280;5719;42.714;23.732;2023-05-10T02:57:01;94708.44;;;8.16;99.87
11329;BME280;5719;42.714;23.732;2023-05-10T02:59:30;94709.25;;;8.16;100.00
11329;BME280;5719;42.714;23.732;2023-05-10T03:01:59;94705.25;;;8.26;100.00
11329;BME280;5719;42.714;23.732;2023-05-10T03:04:26;94707.56;;;8.31;99.56
11329;BME280;5719;42.714;23.732;2023-05-10T03:06:53;94720.69;;;8.26;99.02
11329;BME280;5719;42.714;23.732;2023-05-10T03:09:20;94717.28;;;8.26;100.00
11329;BME280;5719;42.714;23.732;2023-05-10T03:11:55;94714.47;;;8.30;100.00
11329;BME280;5719;42.714;23.732;2023-05-10T03:14:32;94713.09;;;8.39;99.48
11329;BME280;5719;42.714;23.732;2023-05-10T03:17:08;94714.63;;;8.42;100.00
11329;BME280;5719;42.714;23.732;2023-05-10T03:19:43;94712.53;;;8.34;99.54
11329;BME280;5719;42.714;23.732;2023-05-10T03:22:10;94720.03;;;8.23;96.44
11329;BME280;5719;42.714;23.732;2023-05-10T03:24:39;94723.06;;;8.15;97.51
11329;BME280;5719;42.714;23.732;2023-05-10T03:27:10;94726.75;;;8.11;97.19
11329;BME280;5719;42.714;23.732;2023-05-10T03:29:38;94724.38;;;8.22;99.25
11329;BME280;5719;42.714;23.732;2023-05-10T03:32:05;94719.72;;;8.29;95.22
11329;BME280;5719;42.714;23.732;2023-05-10T03:34:32;94716.69;;;8.36;94.99
11329;BME280;5719;42.714;23.732;2023-05-10T03:36:59;94716.41;;;8.55;97.39
11329;BME280;5719;42.714;23.732;2023-05-10T03:39:26;94713.38;;;8.63;100.00
11329;BME280;5719;42.714;23.732;2023-05-10T03:41:53;94711.31;;;8.68;100.00
11329;BME280;5719;42.714;23.732;2023-05-10T03:44:21;94716.28;;;8.71;100.00
11329;BME280;5719;42.714;23.732;2023-05-10T03:46:48;94718.59;;;8.75;100.00
11329;BME280;5719;42.714;23.732;2023-05-10T03:49:15;94718.25;;;8.81;100.00
11329;BME280;5719;42.714;23.732;2023-05-10T03:51:41;94713.16;;;8.80;100.00
11329;BME280;5719;42.714;23.732;2023-05-10T03:54:08;94709.38;;;8.85;98.43
11329;BME280;5719;42.714;23.732;2023-05-10T03:56:35;94709.38;;;8.85;98.19
11329;BME280;5719;42.714;23.732;2023-05-10T03:59:02;94699.63;;;8.76;96.22
11329;BME280;5719;42.714;23.732;2023-05-10T04:01:34;94709.59;;;8.68;96.67
11329;BME280;5719;42.714;23.732;2023-05-10T04:04:01;94714.22;;;8.63;95.42
11329;BME280;5719;42.714;23.732;2023-05-10T04:06:27;94720.16;;;8.64;95.26
11329;BME280;5719;42.714;23.732;2023-05-10T04:08:54;94713.38;;;8.63;93.36
11329;BME280;5719;42.714;23.732;2023-05-10T04:11:21;94710.16;;;8.59;94.34
11329;BME280;5719;42.714;23.732;2023-05-10T04:13:50;94723.19;;;8.56;98.05
11329;BME280;5719;42.714;23.732;2023-05-10T04:16:16;94720.28;;;8.48;97.95
11329;BME280;5719;42.714;23.732;2023-05-10T04:18:45;94726.53;;;8.44;97.32
11329;BME280;5719;42.714;23.732;2023-05-10T04:21:12;94724.94;;;8.42;99.08
11329;BME280;5719;42.714;23.732;2023-05-10T04:23:39;94724.13;;;8.41;97.90
11329;BME280;5719;42.714;23.732;2023-05-10T04:26:06;94727.25;;;8.46;99.10
11329;BME280;5719;42.714;23.732;2023-05-10T04:28:33;94713.47;;;8.47;99.11
11329;BME280;5719;42.714;23.732;2023-05-10T04:31:01;94722.28;;;8.57;98.70
11329;BME280;5719;42.714;23.732;2023-05-10T04:33:29;94720.91;;;8.66;94.80
11329;BME280;5719;42.714;23.732;2023-05-10T04:35:57;94721.19;;;8.61;96.85
11329;BME280;5719;42.714;23.732;2023-05-10T04:38:24;94713.63;;;8.72;93.97
11329;BME280;5719;42.714;23.732;2023-05-10T04:40:52;94717.50;;;8.79;94.30
11329;BME280;5719;42.714;23.732;2023-05-10T04:43:19;94712.06;;;8.84;95.32
11329;BME280;5719;42.714;23.732;2023-05-10T04:45:46;94706.53;;;8.90;93.94
11329;BME280;5719;42.714;23.732;2023-05-10T04:48:13;94706.97;;;8.97;92.47
11329;BME280;5719;42.714;23.732;2023-05-10T04:50:39;94706.66;;;9.15;92.66
11329;BME280;5719;42.714;23.732;2023-05-10T04:53:08;94713.19;;;9.21;93.21
11329;BME280;5719;42.714;23.732;2023-05-10T04:55:35;94713.81;;;9.24;92.27
11329;BME280;5719;42.714;23.732;2023-05-10T04:58:02;94711.88;;;9.28;90.99
11329;BME280;5719;42.714;23.732;2023-05-10T05:00:29;94718.66;;;9.29;91.36
11329;BME280;5719;42.714;23.732;2023-05-10T05:02:56;94713.06;;;9.22;92.50
11329;BME280;5719;42.714;23.732;2023-05-10T05:05:23;94718.50;;;9.32;89.88
11329;BME280;5719;42.714;23.732;2023-05-10T05:07:50;94707.59;;;9.41;89.68
11329;BME280;5719;42.714;23.732;2023-05-10T05:10:18;94718.72;;;9.42;88.13
11329;BME280;5719;42.714;23.732;2023-05-10T05:12:45;94717.91;;;9.41;88.45
11329;BME280;5719;42.714;23.732;2023-05-10T05:15:12;94720.47;;;9.41;88.94
11329;BME280;5719;42.714;23.732;2023-05-10T05:17:40;94722.44;;;9.38;86.05
11329;BME280;5719;42.714;23.732;2023-05-10T05:20:08;94716.63;;;9.34;88.35
11329;BME280;5719;42.714;23.732;2023-05-10T05:22:36;94728.44;;;9.38;88.85
11329;BME280;5719;42.714;23.732;2023-05-10T05:25:03;94723.47;;;9.35;86.96
11329;BME280;5719;42.714;23.732;2023-05-10T05:27:32;94723.81;;;9.43;86.52
11329;BME280;5719;42.714;23.732;2023-05-10T05:29:58;94724.53;;;9.45;87.07
11329;BME280;5719;42.714;23.732;2023-05-10T05:32:25;94730.31;;;9.49;86.32
11329;BME280;5719;42.714;23.732;2023-05-10T05:34:52;94728.66;;;9.48;88.26
11329;BME280;5719;42.714;23.732;2023-05-10T05:37:20;94728.03;;;9.44;80.97
11329;BME280;5719;42.714;23.732;2023-05-10T05:39:48;94734.28;;;9.54;86.01
11329;BME280;5719;42.714;23.732;2023-05-10T05:42:15;94737.63;;;9.69;87.00
11329;BME280;5719;42.714;23.732;2023-05-10T05:44:45;94730.66;;;9.83;87.12
11329;BME280;5719;42.714;23.732;2023-05-10T05:47:12;94736.25;;;9.90;80.89
11329;BME280;5719;42.714;23.732;2023-05-10T05:49:39;94737.78;;;9.93;80.60
11329;BME280;5719;42.714;23.732;2023-05-10T05:52:06;94743.09;;;10.04;84.20
11329;BME280;5719;42.714;23.732;2023-05-10T05:54:33;94740.44;;;10.18;83.62
11329;BME280;5719;42.714;23.732;2023-05-10T05:57:00;94741.91;;;10.22;81.89
11329;BME280;5719;42.714;23.732;2023-05-10T05:59:27;94737.28;;;10.27;78.39
11329;BME280;5719;42.714;23.732;2023-05-10T06:01:55;94747.72;;;10.38;75.87
11329;BME280;5719;42.714;23.732;2023-05-10T06:04:22;94738.41;;;10.36;80.83
11329;BME280;5719;42.714;23.732;2023-05-10T06:06:49;94744.59;;;10.46;79.07
11329;BME280;5719;42.714;23.732;2023-05-10T06:09:16;94742.25;;;10.55;79.95
11329;BME280;5719;42.714;23.732;2023-05-10T06:11:43;94747.31;;;10.44;79.24
11329;BME280;5719;42.714;23.732;2023-05-10T06:14:10;94745.84;;;10.40;79.44
11329;BME280;5719;42.714;23.732;2023-05-10T06:16:37;94747.50;;;10.41;77.29
11329;BME280;5719;42.714;23.732;2023-05-10T06:19:06;94745.75;;;10.42;77.85
11329;BME280;5719;42.714;23.732;2023-05-10T06:21:33;94747.50;;;10.41;77.21
11329;BME280;5719;42.714;23.732;2023-05-10T06:24:00;94747.00;;;10.49;78.52
11329;BME280;5719;42.714;23.732;2023-05-10T06:26:28;94743.38;;;10.51;76.55
11329;BME280;5719;42.714;23.732;2023-05-10T06:28:54;94752.97;;;10.49;74.23
11329;BME280;5719;42.714;23.732;2023-05-10T06:31:21;94749.25;;;10.41;77.37
11329;BME280;5719;42.714;23.732;2023-05-10T06:33:48;94757.50;;;10.46;72.07
11329;BME280;5719;42.714;23.732;2023-05-10T06:36:17;94752.56;;;10.55;73.11
11329;BME280;5719;42.714;23.732;2023-05-10T06:38:44;94748.34;;;10.67;73.45
11329;BME280;5719;42.714;23.732;2023-05-10T06:41:11;94754.66;;;10.63;68.05
11329;BME280;5719;42.714;23.732;2023-05-10T06:43:37;94757.13;;;10.77;70.04
11329;BME280;5719;42.714;23.732;2023-05-10T06:46:06;94760.13;;;10.83;69.21
11329;BME280;5719;42.714;23.732;2023-05-10T06:48:33;94754.72;;;10.87;66.60
11329;BME280;5719;42.714;23.732;2023-05-10T06:51:00;94746.88;;;10.88;68.04
11329;BME280;5719;42.714;23.732;2023-05-10T06:53:29;94749.94;;;11.06;69.03
11329;BME280;5719;42.714;23.732;2023-05-10T06:55:56;94752.63;;;11.17;68.59
11329;BME280;5719;42.714;23.732;2023-05-10T06:58:23;94751.97;;;11.26;67.62
11329;BME280;5719;42.714;23.732;2023-05-10T07:00:50;94754.22;;;11.30;67.68
11329;BME280;5719;42.714;23.732;2023-05-10T07:03:17;94761.69;;;11.22;65.25
11329;BME280;5719;42.714;23.732;2023-05-10T07:05:44;94748.59;;;11.00;67.97
11329;BME280;5719;42.714;23.732;2023-05-10T07:08:11;94740.44;;;10.94;67.84
11329;BME280;5719;42.714;23.732;2023-05-10T08:04:47;94774.09;;;10.81;72.65
11329;BME280;5719;42.714;23.732;2023-05-10T08:07:14;94776.97;;;10.89;73.71
11329;BME280;5719;42.714;23.732;2023-05-10T08:09:41;94771.69;;;11.03;72.47
11329;BME280;5719;42.714;23.732;2023-05-10T08:12:08;94777.56;;;11.18;73.45
11329;BME280;5719;42.714;23.732;2023-05-10T08:14:35;94777.66;;;11.29;75.10
11329;BME280;5719;42.714;23.732;2023-05-10T08:17:03;94777.31;;;11.33;74.56
11329;BME280;5719;42.714;23.732;2023-05-10T08:19:30;94773.88;;;11.46;72.73
11329;BME280;5719;42.714;23.732;2023-05-10T08:21:58;94775.53;;;11.47;72.28
11329;BME280;5719;42.714;23.732;2023-05-10T08:24:25;94780.09;;;11.43;72.09
11329;BME280;5719;42.714;23.732;2023-05-10T08:26:53;94776.78;;;11.41;71.49
11329;BME280;5719;42.714;23.732;2023-05-10T08:29:20;94785.22;;;11.56;74.01
11329;BME280;5719;42.714;23.732;2023-05-10T08:31:46;94774.78;;;11.81;72.65
11329;BME280;5719;42.714;23.732;2023-05-10T08:34:13;94777.06;;;11.86;71.78
11329;BME280;5719;42.714;23.732;2023-05-10T08:36:40;94780.19;;;11.78;70.33
11329;BME280;5719;42.714;23.732;2023-05-10T08:39:09;94773.88;;;11.69;73.08
11329;BME280;5719;42.714;23.732;2023-05-10T08:41:39;94772.19;;;11.81;74.96
11329;BME280;5719;42.714;23.732;2023-05-10T08:44:07;94779.00;;;11.95;74.32
11329;BME280;5719;42.714;23.732;2023-05-10T08:46:36;94781.59;;;12.06;72.30
11329;BME280;5719;42.714;23.732;2023-05-10T08:49:06;94780.31;;;12.00;70.38
11329;BME280;5719;42.714;23.732;2023-05-10T08:51:36;94780.03;;;12.16;68.70
11329;BME280;5719;42.714;23.732;2023-05-10T08:54:07;94774.97;;;12.25;66.62
11329;BME280;5719;42.714;23.732;2023-05-10T08:56:36;94776.22;;;12.44;67.34
11329;BME280;5719;42.714;23.732;2023-05-10T08:59:03;94770.94;;;12.56;66.71
11329;BME280;5719;42.714;23.732;2023-05-10T09:01:31;94776.84;;;12.69;66.69
11329;BME280;5719;42.714;23.732;2023-05-10T09:03:58;94771.41;;;12.61;66.84
11329;BME280;5719;42.714;23.732;2023-05-10T09:06:25;94781.34;;;12.67;66.52
11329;BME280;5719;42.714;23.732;2023-05-10T09:08:52;94765.31;;;12.73;66.48
11329;BME280;5719;42.714;23.732;2023-05-10T09:11:20;94768.25;;;12.80;65.39
11329;BME280;5719;42.714;23.732;2023-05-10T09:13:50;94777.38;;;12.86;65.44
11329;BME280;5719;42.714;23.732;2023-05-10T09:16:18;94777.59;;;13.05;63.48
11329;BME280;5719;42.714;23.732;2023-05-10T09:18:45;94776.59;;;13.18;61.91
11329;BME280;5719;42.714;23.732;2023-05-10T09:21:13;94779.78;;;13.11;61.92
11329;BME280;5719;42.714;23.732;2023-05-10T09:23:42;94779.63;;;13.12;64.20
11329;BME280;5719;42.714;23.732;2023-05-10T09:26:09;94773.75;;;13.10;62.01
11329;BME280;5719;42.714;23.732;2023-05-10T09:28:52;94771.97;;;13.11;61.18
11329;BME280;5719;42.714;23.732;2023-05-10T09:31:19;94769.38;;;13.11;59.99
11329;BME280;5719;42.714;23.732;2023-05-10T09:33:46;94766.16;;;13.07;66.90
11329;BME280;5719;42.714;23.732;2023-05-10T09:36:14;94760.75;;;13.44;62.11
11329;BME280;5719;42.714;23.732;2023-05-10T09:38:48;94762.84;;;13.61;61.22
11329;BME280;5719;42.714;23.732;2023-05-10T09:41:18;94749.50;;;13.54;59.51
11329;BME280;5719;42.714;23.732;2023-05-10T09:43:45;94751.78;;;13.48;60.70
11329;BME280;5719;42.714;23.732;2023-05-10T09:46:14;94751.69;;;13.70;62.01
11329;BME280;5719;42.714;23.732;2023-05-10T09:48:42;94756.28;;;13.77;62.51
11329;BME280;5719;42.714;23.732;2023-05-10T09:51:10;94750.81;;;13.92;57.91
11329;BME280;5719;42.714;23.732;2023-05-10T09:53:37;94756.78;;;14.03;57.10
11329;BME280;5719;42.714;23.732;2023-05-10T09:56:04;94750.88;;;14.33;57.11
11329;BME280;5719;42.714;23.732;2023-05-10T09:58:31;94748.19;;;14.35;56.78
11329;BME280;5719;42.714;23.732;2023-05-10T10:01:03;94744.47;;;14.16;55.51
11329;BME280;5719;42.714;23.732;2023-05-10T10:03:32;94749.97;;;14.34;56.81
11329;BME280;5719;42.714;23.732;2023-05-10T10:05:59;94745.47;;;14.25;55.35
11329;BME280;5719;42.714;23.732;2023-05-10T10:08:26;94747.28;;;14.13;55.73
11329;BME280;5719;42.714;23.732;2023-05-10T10:10:53;94739.09;;;13.97;54.95
11329;BME280;5719;42.714;23.732;2023-05-10T10:13:20;94745.28;;;13.85;53.60
11329;BME280;5719;42.714;23.732;2023-05-10T10:15:48;94735.66;;;13.65;51.81
11329;BME280;5719;42.714;23.732;2023-05-10T10:18:17;94732.03;;;13.45;51.90
11329;BME280;5719;42.714;23.732;2023-05-10T10:20:50;94730.16;;;13.47;52.00
11329;BME280;5719;42.714;23.732;2023-05-10T10:23:17;94726.13;;;13.54;52.94
11329;BME280;5719;42.714;23.732;2023-05-10T10:25:44;94722.69;;;13.65;53.48
11329;BME280;5719;42.714;23.732;2023-05-10T10:28:22;94726.22;;;13.64;54.23
11329;BME280;5719;42.714;23.732;2023-05-10T10:30:53;94723.34;;;13.78;54.12
11329;BME280;5719;42.714;23.732;2023-05-10T10:33:39;94718.19;;;13.99;56.29
11329;BME280;5719;42.714;23.732;2023-05-10T10:36:08;94722.22;;;14.23;55.55
11329;BME280;5719;42.714;23.732;2023-05-10T10:38:37;94723.69;;;14.37;55.37
11329;BME280;5719;42.714;23.732;2023-05-10T10:41:10;94702.38;;;14.43;53.37
11329;BME280;5719;42.714;23.732;2023-05-10T10:47:25;94726.28;;;14.37;52.53
11329;BME280;5719;42.714;23.732;2023-05-10T10:50:05;94733.06;;;14.70;54.63
11329;BME280;5719;42.714;23.732;2023-05-10T10:52:34;94726.22;;;14.69;55.63
11329;BME280;5719;42.714;23.732;2023-05-10T10:55:04;94724.16;;;14.72;50.90
11329;BME280;5719;42.714;23.732;2023-05-10T10:57:33;94723.50;;;14.70;51.65
11329;BME280;5719;42.714;23.732;2023-05-10T11:00:32;94728.53;;;14.42;52.97
11329;BME280;5719;42.714;23.732;2023-05-10T11:03:03;94726.97;;;14.39;54.16
11329;BME280;5719;42.714;23.732;2023-05-10T11:05:36;94725.53;;;14.46;54.54
11329;BME280;5719;42.714;23.732;2023-05-10T11:08:11;94728.72;;;14.50;55.82
11329;BME280;5719;42.714;23.732;2023-05-10T11:10:38;94723.59;;;14.39;56.45
11329;BME280;5719;42.714;23.732;2023-05-10T11:13:06;94727.44;;;14.44;58.58
11329;BME280;5719;42.714;23.732;2023-05-10T11:15:35;94725.00;;;14.32;55.99
11329;BME280;5719;42.714;23.732;2023-05-10T11:18:17;94725.53;;;14.46;53.79
11329;BME280;5719;42.714;23.732;2023-05-10T11:20:50;94720.44;;;14.65;54.54
11329;BME280;5719;42.714;23.732;2023-05-10T11:23:18;94715.16;;;14.77;54.05
11329;BME280;5719;42.714;23.732;2023-05-10T11:25:48;94733.44;;;14.65;54.62
11329;BME280;5719;42.714;23.732;2023-05-10T11:28:17;94716.16;;;14.34;54.20
11329;BME280;5719;42.714;23.732;2023-05-10T11:30:45;94719.34;;;14.27;55.42
11329;BME280;5719;42.714;23.732;2023-05-10T11:33:15;94723.47;;;14.29;55.25
11329;BME280;5719;42.714;23.732;2023-05-10T11:35:43;94717.69;;;14.25;53.24
11329;BME280;5719;42.714;23.732;2023-05-10T11:38:12;94718.47;;;14.16;56.57
11329;BME280;5719;42.714;23.732;2023-05-10T11:40:40;94716.38;;;14.31;57.63
11329;BME280;5719;42.714;23.732;2023-05-10T11:43:09;94706.81;;;14.52;56.80
11329;BME280;5719;42.714;23.732;2023-05-10T11:45:37;94718.44;;;14.48;55.70
11329;BME280;5719;42.714;23.732;2023-05-10T11:48:04;94712.69;;;14.54;54.92
11329;BME280;5719;42.714;23.732;2023-05-10T11:50:31;94714.25;;;14.36;56.81
11329;BME280;5719;42.714;23.732;2023-05-10T11:52:59;94715.47;;;14.21;55.60
11329;BME280;5719;42.714;23.732;2023-05-10T11:55:26;94716.91;;;14.14;55.49
11329;BME280;5719;42.714;23.732;2023-05-10T11:57:54;94719.63;;;13.92;55.89
11329;BME280;5719;42.714;23.732;2023-05-10T12:00:21;94719.03;;;13.88;55.47
11329;BME280;5719;42.714;23.732;2023-05-10T12:02:48;94715.66;;;14.08;56.81
11329;BME280;5719;42.714;23.732;2023-05-10T12:05:16;94715.28;;;14.13;55.82
11329;BME280;5719;42.714;23.732;2023-05-10T12:07:44;94705.41;;;13.96;57.26
11329;BME280;5719;42.714;23.732;2023-05-10T12:10:12;94711.75;;;13.82;55.33
11329;BME280;5719;42.714;23.732;2023-05-10T12:12:41;94708.06;;;13.85;54.99
11329;BME280;5719;42.714;23.732;2023-05-10T12:15:19;94700.88;;;13.77;55.72
11329;BME280;5719;42.714;23.732;2023-05-10T12:17:46;94705.09;;;13.89;54.20
11329;BME280;5719;42.714;23.732;2023-05-10T12:20:15;94706.81;;;14.00;54.83
11329;BME280;5719;42.714;23.732;2023-05-10T12:22:53;94700.66;;;13.80;54.42
11329;BME280;5719;42.714;23.732;2023-05-10T12:25:22;94697.09;;;13.81;56.14
11329;BME280;5719;42.714;23.732;2023-05-10T12:27:54;94690.91;;;14.14;55.72
11329;BME280;5719;42.714;23.732;2023-05-10T12:30:25;94682.41;;;14.33;55.40
11329;BME280;5719;42.714;23.732;2023-05-10T12:32:53;94690.16;;;14.64;54.35
11329;BME280;5719;42.714;23.732;2023-05-10T12:35:20;94695.13;;;14.67;51.58
11329;BME280;5719;42.714;23.732;2023-05-10T12:37:50;94688.59;;;14.52;53.10
11329;BME280;5719;42.714;23.732;2023-05-10T12:40:17;94683.03;;;14.57;50.89
11329;BME280;5719;42.714;23.732;2023-05-10T12:42:44;94681.09;;;14.59;51.27
11329;BME280;5719;42.714;23.732;2023-05-10T12:45:11;94670.09;;;14.46;53.42
11329;BME280;5719;42.714;23.732;2023-05-10T12:47:39;94665.50;;;13.97;53.59
11329;BME280;5719;42.714;23.732;2023-05-10T12:50:07;94665.03;;;14.33;54.63
11329;BME280;5719;42.714;23.732;2023-05-10T12:52:34;94663.34;;;14.43;53.98
11329;BME280;5719;42.714;23.732;2023-05-10T12:55:01;94664.38;;;14.31;53.63
11329;BME280;5719;42.714;23.732;2023-05-10T12:57:29;94658.09;;;14.13;52.18
11329;BME280;5719;42.714;23.732;2023-05-10T12:59:56;94657.25;;;14.33;54.33
11329;BME280;5719;42.714;23.732;2023-05-10T13:02:23;94654.66;;;14.33;52.60
11329;BME280;5719;42.714;23.732;2023-05-10T13:04:52;94630.81;;;14.07;54.29
11329;BME280;5719;42.714;23.732;2023-05-10T13:07:21;94655.66;;;14.21;53.45
11329;BME280;5719;42.714;23.732;2023-05-10T13:09:47;94648.84;;;14.41;51.59
11329;BME280;5719;42.714;23.732;2023-05-10T13:12:14;94653.25;;;14.29;54.04
11329;BME280;5719;42.714;23.732;2023-05-10T13:14:41;94649.13;;;14.27;52.71
11329;BME280;5719;42.714;23.732;2023-05-10T13:17:08;94662.00;;;14.28;51.75
11329;BME280;5719;42.714;23.732;2023-05-10T13:19:35;94662.66;;;14.41;52.45
11329;BME280;5719;42.714;23.732;2023-05-10T13:22:04;94655.84;;;14.29;51.52
11329;BME280;5719;42.714;23.732;2023-05-10T13:24:31;94653.22;;;14.40;53.76
11329;BME280;5719;42.714;23.732;2023-05-10T13:26:58;94649.66;;;14.41;51.67
11329;BME280;5719;42.714;23.732;2023-05-10T13:29:25;94645.41;;;14.40;51.94
11329;BME280;5719;42.714;23.732;2023-05-10T13:31:52;94645.00;;;14.35;53.23
11329;BME280;5719;42.714;23.732;2023-05-10T13:34:20;94637.38;;;14.32;52.79
11329;BME280;5719;42.714;23.732;2023-05-10T13:40:28;94634.16;;;14.19;54.31
11329;BME280;5719;42.714;23.732;2023-05-10T13:42:56;94641.53;;;14.14;53.51
11329;BME280;5719;42.714;23.732;2023-05-10T13:45:23;94636.13;;;13.85;55.86
11329;BME280;5719;42.714;23.732;2023-05-10T13:47:50;94624.53;;;14.10;53.63
11329;BME280;5719;42.714;23.732;2023-05-10T13:50:17;94625.09;;;14.13;53.25
11329;BME280;5719;42.714;23.732;2023-05-10T13:52:44;94629.53;;;14.22;53.09
11329;BME280;5719;42.714;23.732;2023-05-10T13:55:12;94638.91;;;14.14;54.23
11329;BME280;5719;42.714;23.732;2023-05-10T13:57:57;94636.06;;;13.96;53.87
11329;BME280;5719;42.714;23.732;2023-05-10T14:00:24;94637.63;;;13.99;54.45
11329;BME280;5719;42.714;23.732;2023-05-10T14:02:52;94641.00;;;13.79;54.81
11329;BME280;5719;42.714;23.732;2023-05-10T14:05:19;94644.56;;;13.77;54.73
11329;BME280;5719;42.714;23.732;2023-05-10T14:07:46;94642.03;;;13.87;55.86
11329;BME280;5719;42.714;23.732;2023-05-10T14:10:13;94636.75;;;13.77;54.84
11329;BME280;5719;42.714;23.732;2023-05-10T14:12:40;94637.78;;;13.65;55.55
11329;BME280;5719;42.714;23.732;2023-05-10T14:15:09;94637.78;;;13.65;56.29